PARY

Ruby Airport

Airport
ICAO code
PARY
IATA Code
RBY
Summary
ICAO Region
NAM
ICAO Territory
Location

, Alaska

Serving
Ruby
Elevation
658 ft
Coordinates
64° 43' 38" N , 155° 28' 12" W
Metar
PARY 180456Z AUTO 05006KT 10SM OVC095 19/11 A2981 RMK AO2 RAE16 SLP099 P0000 T01890106 TSNO

Runways

Designator Length Width Surface Rops
3/21 1219 30 GVL No/No

Airport map

Aerial View

SKYbrary Partners:

Safety knowledge contributed by: